sensor_id;sensor_type;location;lat;lon;timestamp;pressure;altitude;pressure_sealevel;temperature;humidity
72124;BME280;63818;37.134;-8.548;2023-07-13T00:02:17;101389.7;;;29.2;40.4
72124;BME280;63818;37.134;-8.548;2023-07-13T00:07:24;101388.5;;;29.2;40.3
72124;BME280;63818;37.134;-8.548;2023-07-13T00:12:25;101385.7;;;29.2;40.6
72124;BME280;63818;37.134;-8.548;2023-07-13T00:17:15;101387.3;;;29.2;40.2
72124;BME280;63818;37.134;-8.548;2023-07-13T00:22:01;101385.4;;;29.1;40.5
72124;BME280;63818;37.134;-8.548;2023-07-13T00:26:47;101383.9;;;29.1;40.4
72124;BME280;63818;37.134;-8.548;2023-07-13T00:31:36;101372.1;;;29.1;40.7
72124;BME280;63818;37.134;-8.548;2023-07-13T00:36:22;101380.4;;;29.1;40.3
72124;BME280;63818;37.134;-8.548;2023-07-13T00:41:11;101375.7;;;29.1;40.0
72124;BME280;63818;37.134;-8.548;2023-07-13T00:46:18;101368.2;;;29.0;39.3
72124;BME280;63818;37.134;-8.548;2023-07-13T00:51:10;101357.9;;;29.0;38.8
72124;BME280;63818;37.134;-8.548;2023-07-13T00:55:57;101364.6;;;29.0;39.0
72124;BME280;63818;37.134;-8.548;2023-07-13T01:00:44;101359.9;;;29.0;38.7
72124;BME280;63818;37.134;-8.548;2023-07-13T01:05:33;101350.9;;;29.0;38.3
72124;BME280;63818;37.134;-8.548;2023-07-13T01:10:21;101358.8;;;29.0;38.2
72124;BME280;63818;37.134;-8.548;2023-07-13T01:15:39;101358.4;;;29.0;38.1
72124;BME280;63818;37.134;-8.548;2023-07-13T01:20:24;101351.2;;;29.0;37.5
72124;BME280;63818;37.134;-8.548;2023-07-13T01:25:14;101344.9;;;29.0;37.5
72124;BME280;63818;37.134;-8.548;2023-07-13T01:30:21;101345.0;;;29.0;37.0
72124;BME280;63818;37.134;-8.548;2023-07-13T01:35:06;101344.6;;;29.0;37.0
72124;BME280;63818;37.134;-8.548;2023-07-13T01:39:52;101345.4;;;29.0;36.6
72124;BME280;63818;37.134;-8.548;2023-07-13T01:44:38;101342.6;;;29.0;36.0
72124;BME280;63818;37.134;-8.548;2023-07-13T01:49:24;101339.9;;;28.9;36.0
72124;BME280;63818;37.134;-8.548;2023-07-13T01:54:13;101333.2;;;28.9;36.1
72124;BME280;63818;37.134;-8.548;2023-07-13T01:58:59;101336.0;;;28.9;35.9
72124;BME280;63818;37.134;-8.548;2023-07-13T02:03:45;101338.8;;;28.9;35.3
72124;BME280;63818;37.134;-8.548;2023-07-13T02:08:31;101341.2;;;28.8;35.3
72124;BME280;63818;37.134;-8.548;2023-07-13T02:13:18;101347.9;;;28.8;34.7
72124;BME280;63818;37.134;-8.548;2023-07-13T02:18:06;101339.6;;;28.8;34.9
72124;BME280;63818;37.134;-8.548;2023-07-13T02:22:53;101346.0;;;28.8;34.9
72124;BME280;63818;37.134;-8.548;2023-07-13T02:27:40;101341.6;;;28.8;34.5
72124;BME280;63818;37.134;-8.548;2023-07-13T02:32:28;101337.3;;;28.8;34.2
72124;BME280;63818;37.134;-8.548;2023-07-13T02:37:14;101338.5;;;28.8;33.8
72124;BME280;63818;37.134;-8.548;2023-07-13T02:42:00;101333.4;;;28.8;33.9
72124;BME280;63818;37.134;-8.548;2023-07-13T02:46:46;101324.3;;;28.8;33.7
72124;BME280;63818;37.134;-8.548;2023-07-13T02:51:32;101320.0;;;28.7;33.4
72124;BME280;63818;37.134;-8.548;2023-07-13T02:56:22;101324.0;;;28.7;33.2
72124;BME280;63818;37.134;-8.548;2023-07-13T03:01:13;101316.1;;;28.7;33.3
72124;BME280;63818;37.134;-8.548;2023-07-13T03:06:01;101311.0;;;28.7;33.1
72124;BME280;63818;37.134;-8.548;2023-07-13T03:10:46;101313.0;;;28.6;33.0
72124;BME280;63818;37.134;-8.548;2023-07-13T03:15:32;101315.0;;;28.6;33.2
72124;BME280;63818;37.134;-8.548;2023-07-13T03:20:21;101329.6;;;28.6;32.7
72124;BME280;63818;37.134;-8.548;2023-07-13T03:25:28;101324.1;;;28.6;32.1
72124;BME280;63818;37.134;-8.548;2023-07-13T03:30:12;101319.0;;;28.6;31.9
72124;BME280;63818;37.134;-8.548;2023-07-13T03:34:58;101321.8;;;28.6;31.5
72124;BME280;63818;37.134;-8.548;2023-07-13T03:39:46;101319.4;;;28.6;31.1
72124;BME280;63818;37.134;-8.548;2023-07-13T03:44:32;101316.7;;;28.5;30.3
72124;BME280;63818;37.134;-8.548;2023-07-13T03:49:18;101325.1;;;28.5;30.0
72124;BME280;63818;37.134;-8.548;2023-07-13T03:54:27;101319.9;;;28.5;29.7
72124;BME280;63818;37.134;-8.548;2023-07-13T03:59:12;101322.3;;;28.5;29.3
72124;BME280;63818;37.134;-8.548;2023-07-13T04:03:58;101319.2;;;28.5;29.1
72124;BME280;63818;37.134;-8.548;2023-07-13T04:09:46;101322.7;;;28.5;28.9
72124;BME280;63818;37.134;-8.548;2023-07-13T04:14:29;101325.9;;;28.5;28.4
72124;BME280;63818;37.134;-8.548;2023-07-13T04:19:38;101326.7;;;28.5;28.4
72124;BME280;63818;37.134;-8.548;2023-07-13T04:24:25;101322.4;;;28.4;28.4
72124;BME280;63818;37.134;-8.548;2023-07-13T04:29:33;101329.1;;;28.4;28.3
72124;BME280;63818;37.134;-8.548;2023-07-13T04:34:18;101329.5;;;28.4;28.4
72124;BME280;63818;37.134;-8.548;2023-07-13T04:39:25;101332.7;;;28.4;28.3
72124;BME280;63818;37.134;-8.548;2023-07-13T04:44:30;101337.8;;;28.4;28.7
72124;BME280;63818;37.134;-8.548;2023-07-13T04:49:15;101338.6;;;28.4;28.5
72124;BME280;63818;37.134;-8.548;2023-07-13T04:54:01;101337.9;;;28.4;28.8
72124;BME280;63818;37.134;-8.548;2023-07-13T04:59:13;101341.8;;;28.3;28.6
72124;BME280;63818;37.134;-8.548;2023-07-13T05:04:02;101346.2;;;28.4;28.5
72124;BME280;63818;37.134;-8.548;2023-07-13T05:08:54;101354.8;;;28.4;28.7
72124;BME280;63818;37.134;-8.548;2023-07-13T05:13:44;101347.0;;;28.3;28.6
72124;BME280;63818;37.134;-8.548;2023-07-13T05:18:31;101349.4;;;28.3;28.7
72124;BME280;63818;37.134;-8.548;2023-07-13T05:23:23;101348.2;;;28.3;28.9
72124;BME280;63818;37.134;-8.548;2023-07-13T05:28:09;101356.9;;;28.3;28.8
72124;BME280;63818;37.134;-8.548;2023-07-13T05:32:59;101360.1;;;28.3;28.7
72124;BME280;63818;37.134;-8.548;2023-07-13T05:37:45;101368.4;;;28.2;28.6
72124;BME280;63818;37.134;-8.548;2023-07-13T05:42:32;101366.9;;;28.2;28.8
72124;BME280;63818;37.134;-8.548;2023-07-13T05:47:18;101379.9;;;28.2;29.1
72124;BME280;63818;37.134;-8.548;2023-07-13T05:52:11;101369.3;;;28.1;29.5
72124;BME280;63818;37.134;-8.548;2023-07-13T05:56:58;101376.8;;;28.1;29.5
72124;BME280;63818;37.134;-8.548;2023-07-13T06:01:44;101378.8;;;28.1;29.5
72124;BME280;63818;37.134;-8.548;2023-07-13T06:06:30;101387.5;;;28.1;29.4
72124;BME280;63818;37.134;-8.548;2023-07-13T06:11:18;101390.7;;;28.1;29.6
72124;BME280;63818;37.134;-8.548;2023-07-13T06:16:06;101397.7;;;28.1;29.4
72124;BME280;63818;37.134;-8.548;2023-07-13T06:20:52;101398.1;;;28.1;29.6
72124;BME280;63818;37.134;-8.548;2023-07-13T06:25:39;101408.4;;;28.2;29.7
72124;BME280;63818;37.134;-8.548;2023-07-13T06:30:26;101408.7;;;28.2;29.5
72124;BME280;63818;37.134;-8.548;2023-07-13T06:35:13;101411.5;;;28.2;29.8
72124;BME280;63818;37.134;-8.548;2023-07-13T06:39:59;101415.4;;;28.2;29.6
72124;BME280;63818;37.134;-8.548;2023-07-13T06:44:45;101410.2;;;28.3;29.5
72124;BME280;63818;37.134;-8.548;2023-07-13T06:49:31;101420.9;;;28.2;30.2
72124;BME280;63818;37.134;-8.548;2023-07-13T06:54:17;101428.5;;;28.2;30.6
72124;BME280;63818;37.134;-8.548;2023-07-13T06:59:03;101426.9;;;28.2;30.5
72124;BME280;63818;37.134;-8.548;2023-07-13T07:03:49;101429.6;;;28.3;30.7
72124;BME280;63818;37.134;-8.548;2023-07-13T07:08:35;101433.9;;;28.3;30.6
72124;BME280;63818;37.134;-8.548;2023-07-13T07:13:21;101438.6;;;28.3;30.8
72124;BME280;63818;37.134;-8.548;2023-07-13T07:18:09;101440.2;;;28.3;30.9
72124;BME280;63818;37.134;-8.548;2023-07-13T07:22:56;101442.2;;;28.3;30.7
72124;BME280;63818;37.134;-8.548;2023-07-13T07:27:45;101441.0;;;28.3;30.5
72124;BME280;63818;37.134;-8.548;2023-07-13T07:32:31;101443.0;;;28.3;31.0
72124;BME280;63818;37.134;-8.548;2023-07-13T07:37:17;101441.4;;;28.3;30.9
72124;BME280;63818;37.134;-8.548;2023-07-13T07:42:04;101440.1;;;28.4;30.9
72124;BME280;63818;37.134;-8.548;2023-07-13T07:46:50;101441.3;;;28.4;31.3
72124;BME280;63818;37.134;-8.548;2023-07-13T07:51:37;101439.3;;;28.5;31.2
72124;BME280;63818;37.134;-8.548;2023-07-13T07:56:24;101449.5;;;28.5;31.2
72124;BME280;63818;37.134;-8.548;2023-07-13T08:01:11;101451.1;;;28.5;31.1
72124;BME280;63818;37.134;-8.548;2023-07-13T08:05:58;101449.1;;;28.5;30.7
72124;BME280;63818;37.134;-8.548;2023-07-13T08:10:45;101448.7;;;28.5;31.2
72124;BME280;63818;37.134;-8.548;2023-07-13T08:15:31;101450.2;;;28.6;32.2
72124;BME280;63818;37.134;-8.548;2023-07-13T08:20:19;101450.9;;;28.6;32.8
72124;BME280;63818;37.134;-8.548;2023-07-13T08:25:06;101439.5;;;28.6;31.2
72124;BME280;63818;37.134;-8.548;2023-07-13T08:29:52;101445.0;;;28.6;32.2
72124;BME280;63818;37.134;-8.548;2023-07-13T08:34:38;101436.3;;;28.6;31.4
72124;BME280;63818;37.134;-8.548;2023-07-13T08:39:24;101433.9;;;28.6;31.5
72124;BME280;63818;37.134;-8.548;2023-07-13T08:44:22;101436.2;;;28.7;31.2
72124;BME280;63818;37.134;-8.548;2023-07-13T08:49:14;101443.3;;;28.7;31.5
72124;BME280;63818;37.134;-8.548;2023-07-13T08:54:04;101433.4;;;28.7;31.4
72124;BME280;63818;37.134;-8.548;2023-07-13T08:58:55;101437.3;;;28.8;31.0
72124;BME280;63818;37.134;-8.548;2023-07-13T09:03:46;101439.7;;;28.8;31.2
72124;BME280;63818;37.134;-8.548;2023-07-13T09:08:53;101444.8;;;28.8;32.4
72124;BME280;63818;37.134;-8.548;2023-07-13T09:13:48;101445.6;;;28.8;31.7
72124;BME280;63818;37.134;-8.548;2023-07-13T09:18:42;101440.4;;;28.9;31.6
72124;BME280;63818;37.134;-8.548;2023-07-13T09:23:30;101446.3;;;28.9;32.3
72124;BME280;63818;37.134;-8.548;2023-07-13T09:28:19;101440.0;;;28.9;32.9
72124;BME280;63818;37.134;-8.548;2023-07-13T09:33:07;101435.2;;;28.9;32.1
72124;BME280;63818;37.134;-8.548;2023-07-13T09:37:57;101438.4;;;28.9;32.4
72124;BME280;63818;37.134;-8.548;2023-07-13T09:42:44;101444.9;;;28.8;33.3
72124;BME280;63818;37.134;-8.548;2023-07-13T09:47:32;101441.0;;;28.7;34.2
72124;BME280;63818;37.134;-8.548;2023-07-13T09:52:25;101445.3;;;28.7;34.1
72124;BME280;63818;37.134;-8.548;2023-07-13T09:57:15;101441.0;;;28.7;33.3
72124;BME280;63818;37.134;-8.548;2023-07-13T10:02:01;101441.0;;;28.7;33.5
72124;BME280;63818;37.134;-8.548;2023-07-13T10:06:48;101439.0;;;28.7;34.3
72124;BME280;63818;37.134;-8.548;2023-07-13T10:11:35;101442.6;;;28.7;33.0
72124;BME280;63818;37.134;-8.548;2023-07-13T10:16:21;101445.7;;;28.7;33.2
72124;BME280;63818;37.134;-8.548;2023-07-13T10:21:15;101437.3;;;28.7;32.7
72124;BME280;63818;37.134;-8.548;2023-07-13T10:26:03;101429.0;;;28.8;32.8
72124;BME280;63818;37.134;-8.548;2023-07-13T10:30:52;101429.0;;;28.8;32.6
72124;BME280;63818;37.134;-8.548;2023-07-13T10:35:42;101429.0;;;28.8;32.8
72124;BME280;63818;37.134;-8.548;2023-07-13T10:40:33;101430.9;;;28.9;33.2
72124;BME280;63818;37.134;-8.548;2023-07-13T10:45:23;101426.1;;;28.9;33.3
72124;BME280;63818;37.134;-8.548;2023-07-13T10:50:18;101422.4;;;28.9;33.3
72124;BME280;63818;37.134;-8.548;2023-07-13T10:55:05;101420.9;;;28.9;33.3
72124;BME280;63818;37.134;-8.548;2023-07-13T11:00:14;101423.7;;;28.9;33.5
72124;BME280;63818;37.134;-8.548;2023-07-13T11:05:17;101415.8;;;29.0;33.7
72124;BME280;63818;37.134;-8.548;2023-07-13T11:10:45;101411.0;;;29.0;33.9
72124;BME280;63818;37.134;-8.548;2023-07-13T11:15:10;101404.6;;;29.0;33.3
72124;BME280;63818;37.134;-8.548;2023-07-13T11:20:30;101410.9;;;29.0;33.6
72124;BME280;63818;37.134;-8.548;2023-07-13T11:25:25;101409.3;;;29.0;34.0
72124;BME280;63818;37.134;-8.548;2023-07-13T11:30:37;101402.2;;;29.0;34.1
72124;BME280;63818;37.134;-8.548;2023-07-13T11:35:26;101398.4;;;28.9;34.2
72124;BME280;63818;37.134;-8.548;2023-07-13T11:40:14;101396.3;;;29.0;34.4
72124;BME280;63818;37.134;-8.548;2023-07-13T11:45:01;101390.8;;;29.0;34.1
72124;BME280;63818;37.134;-8.548;2023-07-13T11:49:49;101389.1;;;29.0;34.4
72124;BME280;63818;37.134;-8.548;2023-07-13T11:54:46;101384.0;;;29.1;34.3
72124;BME280;63818;37.134;-8.548;2023-07-13T11:59:40;101386.0;;;29.1;33.8
72124;BME280;63818;37.134;-8.548;2023-07-13T12:04:29;101372.9;;;29.1;33.1
72124;BME280;63818;37.134;-8.548;2023-07-13T12:09:14;101375.7;;;29.1;33.0
72124;BME280;63818;37.134;-8.548;2023-07-13T12:14:00;101372.9;;;29.1;32.4
72124;BME280;63818;37.134;-8.548;2023-07-13T12:18:46;101369.7;;;29.1;32.0
72124;BME280;63818;37.134;-8.548;2023-07-13T12:23:34;101367.4;;;29.1;31.9
72124;BME280;63818;37.134;-8.548;2023-07-13T12:28:34;101357.8;;;29.1;31.7
72124;BME280;63818;37.134;-8.548;2023-07-13T12:33:26;101352.1;;;29.2;31.4
72124;BME280;63818;37.134;-8.548;2023-07-13T12:38:14;101341.8;;;29.3;31.5
72124;BME280;63818;37.134;-8.548;2023-07-13T12:43:01;101342.6;;;29.2;32.1
72124;BME280;63818;37.134;-8.548;2023-07-13T12:47:53;101331.1;;;29.2;32.1
72124;BME280;63818;37.134;-8.548;2023-07-13T12:52:39;101332.7;;;29.2;31.9
72124;BME280;63818;37.134;-8.548;2023-07-13T12:57:25;101332.2;;;29.3;32.3
72124;BME280;63818;37.134;-8.548;2023-07-13T13:02:28;101324.3;;;29.3;31.9
72124;BME280;63818;37.134;-8.548;2023-07-13T13:07:15;101318.4;;;29.3;32.0
72124;BME280;63818;37.134;-8.548;2023-07-13T13:12:02;101305.6;;;29.4;32.5
72124;BME280;63818;37.134;-8.548;2023-07-13T13:16:50;101297.2;;;29.4;33.1
72124;BME280;63818;37.134;-8.548;2023-07-13T13:21:39;101294.8;;;29.4;33.7
72124;BME280;63818;37.134;-8.548;2023-07-13T13:26:25;101288.4;;;29.5;34.4
72124;BME280;63818;37.134;-8.548;2023-07-13T13:31:11;101288.3;;;29.5;34.6
72124;BME280;63818;37.134;-8.548;2023-07-13T13:35:57;101277.5;;;29.6;34.4
72124;BME280;63818;37.134;-8.548;2023-07-13T13:40:44;101277.4;;;29.6;33.8
72124;BME280;63818;37.134;-8.548;2023-07-13T13:45:33;101284.8;;;29.7;35.3
72124;BME280;63818;37.134;-8.548;2023-07-13T13:50:21;101281.5;;;29.8;36.7
72124;BME280;63818;37.134;-8.548;2023-07-13T13:55:11;101273.2;;;29.8;34.8
72124;BME280;63818;37.134;-8.548;2023-07-13T13:59:57;101266.4;;;29.8;34.2
72124;BME280;63818;37.134;-8.548;2023-07-13T14:04:43;101270.0;;;29.8;34.4
72124;BME280;63818;37.134;-8.548;2023-07-13T14:09:29;101246.2;;;29.8;33.8
72124;BME280;63818;37.134;-8.548;2023-07-13T14:14:18;101242.5;;;29.9;33.4
72124;BME280;63818;37.134;-8.548;2023-07-13T14:19:05;101252.4;;;30.1;32.8
72124;BME280;63818;37.134;-8.548;2023-07-13T14:23:51;101231.5;;;30.2;31.1
72124;BME280;63818;37.134;-8.548;2023-07-13T14:28:38;101217.7;;;30.4;31.3
72124;BME280;63818;37.134;-8.548;2023-07-13T14:33:26;101218.7;;;30.5;30.7
72124;BME280;63818;37.134;-8.548;2023-07-13T14:38:15;101212.7;;;30.5;30.1
72124;BME280;63818;37.134;-8.548;2023-07-13T14:43:02;101219.6;;;30.6;30.0
72124;BME280;63818;37.134;-8.548;2023-07-13T14:47:48;101235.7;;;30.7;30.2
72124;BME280;63818;37.134;-8.548;2023-07-13T14:52:34;101213.5;;;31.0;30.3
72124;BME280;63818;37.134;-8.548;2023-07-13T14:57:21;101220.7;;;31.0;29.7
72124;BME280;63818;37.134;-8.548;2023-07-13T15:02:16;101226.3;;;31.1;29.4
72124;BME280;63818;37.134;-8.548;2023-07-13T15:07:02;101201.4;;;31.1;29.7
72124;BME280;63818;37.134;-8.548;2023-07-13T15:11:48;101209.9;;;31.1;29.2
72124;BME280;63818;37.134;-8.548;2023-07-13T15:16:35;101203.7;;;31.2;29.5
72124;BME280;63818;37.134;-8.548;2023-07-13T15:21:23;101194.1;;;31.3;29.1
72124;BME280;63818;37.134;-8.548;2023-07-13T15:26:11;101178.5;;;31.3;29.5
72124;BME280;63818;37.134;-8.548;2023-07-13T15:30:57;101185.7;;;31.3;29.1
72124;BME280;63818;37.134;-8.548;2023-07-13T15:35:46;101178.0;;;31.4;29.4
72124;BME280;63818;37.134;-8.548;2023-07-13T15:40:32;101167.0;;;31.3;29.0
72124;BME280;63818;37.134;-8.548;2023-07-13T15:45:20;101174.2;;;31.4;28.9
72124;BME280;63818;37.134;-8.548;2023-07-13T15:50:11;101157.5;;;31.5;28.8
72124;BME280;63818;37.134;-8.548;2023-07-13T15:54:59;101158.4;;;31.5;28.6
72124;BME280;63818;37.134;-8.548;2023-07-13T15:59:46;101155.8;;;31.8;28.4
72124;BME280;63818;37.134;-8.548;2023-07-13T16:04:32;101176.4;;;32.0;28.1
72124;BME280;63818;37.134;-8.548;2023-07-13T16:09:21;101155.6;;;32.3;27.5
72124;BME280;63818;37.134;-8.548;2023-07-13T16:14:12;101154.8;;;32.6;27.4
72124;BME280;63818;37.134;-8.548;2023-07-13T16:19:02;101176.0;;;32.8;26.5
72124;BME280;63818;37.134;-8.548;2023-07-13T16:23:48;101161.7;;;32.9;26.6
72124;BME280;63818;37.134;-8.548;2023-07-13T16:28:35;101153.6;;;33.0;26.8
72124;BME280;63818;37.134;-8.548;2023-07-13T16:33:21;101161.8;;;32.9;26.1
72124;BME280;63818;37.134;-8.548;2023-07-13T16:38:14;101170.6;;;32.8;26.1
72124;BME280;63818;37.134;-8.548;2023-07-13T16:43:01;101182.0;;;32.8;26.1
72124;BME280;63818;37.134;-8.548;2023-07-13T16:47:48;101169.8;;;32.8;27.0
72124;BME280;63818;37.134;-8.548;2023-07-13T16:52:34;101140.1;;;32.7;27.0
72124;BME280;63818;37.134;-8.548;2023-07-13T16:57:23;101148.0;;;32.6;27.5
72124;BME280;63818;37.134;-8.548;2023-07-13T17:02:35;101141.2;;;32.5;27.6
72124;BME280;63818;37.134;-8.548;2023-07-13T17:07:23;101131.8;;;32.5;27.9
72124;BME280;63818;37.134;-8.548;2023-07-13T17:12:10;101166.1;;;32.4;27.8
72124;BME280;63818;37.134;-8.548;2023-07-13T17:16:58;101138.6;;;32.3;28.2
72124;BME280;63818;37.134;-8.548;2023-07-13T17:21:45;101129.6;;;32.3;28.5
72124;BME280;63818;37.134;-8.548;2023-07-13T17:26:32;101160.7;;;32.2;28.3
72124;BME280;63818;37.134;-8.548;2023-07-13T17:31:22;101135.3;;;32.1;28.2
72124;BME280;63818;37.134;-8.548;2023-07-13T17:36:12;101119.8;;;32.1;28.6
72124;BME280;63818;37.134;-8.548;2023-07-13T17:40:59;101112.3;;;32.1;28.8
72124;BME280;63818;37.134;-8.548;2023-07-13T17:45:45;101122.1;;;32.0;28.8
72124;BME280;63818;37.134;-8.548;2023-07-13T17:50:32;101120.1;;;32.0;28.9
72124;BME280;63818;37.134;-8.548;2023-07-13T17:55:19;101104.9;;;31.9;29.3
72124;BME280;63818;37.134;-8.548;2023-07-13T18:00:06;101092.2;;;31.9;29.2
72124;BME280;63818;37.134;-8.548;2023-07-13T18:04:52;101124.6;;;31.9;29.1
72124;BME280;63818;37.134;-8.548;2023-07-13T18:09:38;101131.0;;;31.8;29.3
72124;BME280;63818;37.134;-8.548;2023-07-13T18:14:26;101120.7;;;31.7;29.6
72124;BME280;63818;37.134;-8.548;2023-07-13T18:19:28;101116.6;;;31.6;29.7
72124;BME280;63818;37.134;-8.548;2023-07-13T18:24:18;101111.0;;;31.6;29.9
72124;BME280;63818;37.134;-8.548;2023-07-13T18:29:03;101112.6;;;31.6;29.8
72124;BME280;63818;37.134;-8.548;2023-07-13T18:33:52;101124.0;;;31.5;29.9
72124;BME280;63818;37.134;-8.548;2023-07-13T18:38:38;101114.3;;;31.5;30.0
72124;BME280;63818;37.134;-8.548;2023-07-13T18:43:24;101112.0;;;31.4;30.2
72124;BME280;63818;37.134;-8.548;2023-07-13T18:48:15;101108.7;;;31.3;30.2
72124;BME280;63818;37.134;-8.548;2023-07-13T18:53:07;101117.3;;;31.2;30.4
72124;BME280;63818;37.134;-8.548;2023-07-13T18:57:56;101123.4;;;31.2;30.5
72124;BME280;63818;37.134;-8.548;2023-07-13T19:02:42;101115.2;;;31.1;30.8
72124;BME280;63818;37.134;-8.548;2023-07-13T19:07:28;101127.9;;;31.1;30.4
72124;BME280;63818;37.134;-8.548;2023-07-13T19:12:18;101120.6;;;31.0;30.7
72124;BME280;63818;37.134;-8.548;2023-07-13T19:17:04;101123.8;;;31.0;31.0
72124;BME280;63818;37.134;-8.548;2023-07-13T19:21:51;101123.2;;;31.0;31.2
72124;BME280;63818;37.134;-8.548;2023-07-13T19:26:38;101120.2;;;30.9;30.9
72124;BME280;63818;37.134;-8.548;2023-07-13T19:31:26;101124.8;;;30.8;31.0
72124;BME280;63818;37.134;-8.548;2023-07-13T19:36:14;101133.6;;;30.7;31.2
72124;BME280;63818;37.134;-8.548;2023-07-13T19:40:59;101133.3;;;30.7;31.3
72124;BME280;63818;37.134;-8.548;2023-07-13T19:45:45;101135.5;;;30.6;31.4
72124;BME280;63818;37.134;-8.548;2023-07-13T19:50:31;101155.5;;;30.6;31.6
72124;BME280;63818;37.134;-8.548;2023-07-13T19:55:19;101143.4;;;30.5;31.7
72124;BME280;63818;37.134;-8.548;2023-07-13T20:00:12;101144.3;;;30.4;31.6
72124;BME280;63818;37.134;-8.548;2023-07-13T20:05:09;101152.1;;;30.3;31.8
72124;BME280;63818;37.134;-8.548;2023-07-13T20:09:55;101156.6;;;30.2;31.8
72124;BME280;63818;37.134;-8.548;2023-07-13T20:14:44;101154.3;;;30.2;31.4
72124;BME280;63818;37.134;-8.548;2023-07-13T20:19:34;101158.0;;;30.1;31.3
72124;BME280;63818;37.134;-8.548;2023-07-13T20:24:21;101176.7;;;30.1;30.9
72124;BME280;63818;37.134;-8.548;2023-07-13T20:29:07;101165.0;;;30.2;30.7
72124;BME280;63818;37.134;-8.548;2023-07-13T20:33:55;101173.4;;;30.2;30.7
72124;BME280;63818;37.134;-8.548;2023-07-13T20:38:41;101181.7;;;30.2;30.5
72124;BME280;63818;37.134;-8.548;2023-07-13T20:43:28;101188.4;;;30.2;30.4
72124;BME280;63818;37.134;-8.548;2023-07-13T20:48:26;101188.1;;;30.2;30.6
72124;BME280;63818;37.134;-8.548;2023-07-13T20:53:13;101201.6;;;30.1;30.1
72124;BME280;63818;37.134;-8.548;2023-07-13T20:57:59;101191.5;;;30.1;30.5
72124;BME280;63818;37.134;-8.548;2023-07-13T21:02:47;101196.9;;;30.1;30.3
72124;BME280;63818;37.134;-8.548;2023-07-13T21:07:36;101214.8;;;30.1;30.3
72124;BME280;63818;37.134;-8.548;2023-07-13T21:12:22;101216.8;;;30.1;30.3
72124;BME280;63818;37.134;-8.548;2023-07-13T21:17:11;101220.0;;;30.0;30.2
72124;BME280;63818;37.134;-8.548;2023-07-13T21:21:58;101217.8;;;30.0;30.1
72124;BME280;63818;37.134;-8.548;2023-07-13T21:26:44;101235.9;;;30.0;30.5
72124;BME280;63818;37.134;-8.548;2023-07-13T21:31:32;101231.1;;;30.0;30.3
72124;BME280;63818;37.134;-8.548;2023-07-13T21:36:19;101240.7;;;30.0;30.3
72124;BME280;63818;37.134;-8.548;2023-07-13T21:41:19;101232.5;;;30.0;30.1
72124;BME280;63818;37.134;-8.548;2023-07-13T21:45:58;101244.3;;;30.0;29.9
72124;BME280;63818;37.134;-8.548;2023-07-13T21:50:47;101244.4;;;30.0;30.2
72124;BME280;63818;37.134;-8.548;2023-07-13T21:55:33;101243.8;;;30.1;30.2
72124;BME280;63818;37.134;-8.548;2023-07-13T22:00:24;101238.6;;;30.1;29.9
72124;BME280;63818;37.134;-8.548;2023-07-13T22:05:14;101234.6;;;30.1;30.2
72124;BME280;63818;37.134;-8.548;2023-07-13T22:10:00;101232.9;;;30.1;29.8
72124;BME280;63818;37.134;-8.548;2023-07-13T22:14:46;101228.9;;;30.2;30.1
72124;BME280;63818;37.134;-8.548;2023-07-13T22:19:32;101237.6;;;30.1;29.9
72124;BME280;63818;37.134;-8.548;2023-07-13T22:24:19;101236.1;;;30.1;30.1
72124;BME280;63818;37.134;-8.548;2023-07-13T22:29:16;101235.7;;;30.1;29.8
72124;BME280;63818;37.134;-8.548;2023-07-13T22:34:01;101242.0;;;30.1;29.6
72124;BME280;63818;37.134;-8.548;2023-07-13T22:38:47;101242.0;;;30.1;29.4
72124;BME280;63818;37.134;-8.548;2023-07-13T22:43:33;101239.6;;;30.1;29.5
72124;BME280;63818;37.134;-8.548;2023-07-13T22:48:21;101236.9;;;30.1;29.7
72124;BME280;63818;37.134;-8.548;2023-07-13T22:53:11;101238.4;;;30.1;29.5
72124;BME280;63818;37.134;-8.548;2023-07-13T22:57:58;101239.3;;;30.1;29.6
72124;BME280;63818;37.134;-8.548;2023-07-13T23:02:45;101240.1;;;30.1;29.4
72124;BME280;63818;37.134;-8.548;2023-07-13T23:07:31;101241.3;;;30.1;29.6
72124;BME280;63818;37.134;-8.548;2023-07-13T23:12:20;101241.3;;;30.1;29.3
72124;BME280;63818;37.134;-8.548;2023-07-13T23:17:10;101255.5;;;30.1;29.6
72124;BME280;63818;37.134;-8.548;2023-07-13T23:21:56;101253.6;;;30.1;29.3
72124;BME280;63818;37.134;-8.548;2023-07-13T23:26:45;101247.4;;;30.0;29.5
72124;BME280;63818;37.134;-8.548;2023-07-13T23:31:32;101255.3;;;30.0;29.6
72124;BME280;63818;37.134;-8.548;2023-07-13T23:36:20;101243.1;;;30.0;29.3
72124;BME280;63818;37.134;-8.548;2023-07-13T23:41:09;101240.3;;;30.0;29.3
72124;BME280;63818;37.134;-8.548;2023-07-13T23:45:55;101250.2;;;30.0;29.6
72124;BME280;63818;37.134;-8.548;2023-07-13T23:50:43;101246.7;;;30.0;30.1
72124;BME280;63818;37.134;-8.548;2023-07-13T23:55:31;101251.4;;;30.0;30.8
